Terminal Aerodrome Forecast
Issued by NWS Grand Forks, ND

Home | Current Version | Previous Version | Graphics & Text | Print | Product List | Glossary On
Versions: 1 2 3 4 5 6 7 8 9 10 11 12 13 14 15 16 17 18 19
000
FTUS43 KFGF 060532
TAFFAR
TAF
KFAR 060532Z 0606/0706 18007KT P6SM BKN250
     FM061400 18011KT P6SM BKN120
     FM062100 20015G22KT P6SM BKN250
     FM070300 22022G30KT P6SM BKN100=

USA.gov is the U.S. government's official web portal to all federal, state and local government web resources and services.